1884 NOT_NAMED (1884011S10063)


IBTrACS version v04r00. Visit IBTrACS website for data access.
Please direct all questions to the IBTrACS Q and A forum

Storm track - Intensity - Wind Radii - Intensity Data - Source Data - All data

Summary Information

Storm ID 1884011S10063
Start Jan 11 00Z
End Jan 20 00Z
ATCF IDs
Track status Best track data.

Storm track plot

Map of storm track

Intensity plots

No Intensity information for this storm


Radial wind information

No radial wind information for this storm


Position and Intensity Table

BASIN ISO_TIME_________ NATURE LAT LON
degrees north degrees east
SI 1884-01-11 00:00:00 TS -10.00 63.00
SI 03:00:00 TS -10.25 62.76
SI 06:00:00 TS -10.50 62.50
SI 09:00:00 TS -10.76 62.20
SI 12:00:00 TS -11.00 61.90
SI 15:00:00 TS -11.21 61.64
SI 18:00:00 TS -11.40 61.40
SI 21:00:00 TS -11.61 61.14
SI 1884-01-12 00:00:00 TS -11.80 60.90
SI 03:00:00 TS -11.96 60.73
SI 06:00:00 TS -12.10 60.60
SI 09:00:00 TS -12.20 60.50
SI 12:00:00 TS -12.30 60.40
SI 15:00:00 TS -12.45 60.25
SI 18:00:00 TS -12.60 60.10
SI 21:00:00 TS -12.71 59.99
SI 1884-01-13 00:00:00 TS -12.80 59.90
SI 03:00:00 TS -12.89 59.79
SI 06:00:00 TS -13.00 59.70
SI 09:00:00 TS -13.14 59.65
SI 12:00:00 TS -13.30 59.60
SI 15:00:00 TS -13.44 59.51
SI 18:00:00 TS -13.60 59.40
SI 21:00:00 TS -13.81 59.29
SI 1884-01-14 00:00:00 TS -14.00 59.20
SI 03:00:00 TS -14.11 59.13
SI 06:00:00 TS -14.20 59.10
SI 09:00:00 TS -14.34 59.09
SI 12:00:00 TS -14.50 59.10
SI 15:00:00 TS -14.66 59.09
SI 18:00:00 TS -14.80 59.10
SI 21:00:00 TS -14.91 59.15
SI 1884-01-15 00:00:00 TS -15.00 59.20
SI 03:00:00 TS -15.11 59.20
SI 06:00:00 TS -15.20 59.20
SI 09:00:00 TS -15.25 59.24
SI 12:00:00 TS -15.30 59.30
SI 15:00:00 TS -15.40 59.35
SI 18:00:00 TS -15.50 59.40
SI 21:00:00 TS -15.53 59.44
SI 1884-01-16 00:00:00 TS -15.60 59.50
SI 03:00:00 TS -15.78 59.63
SI 06:00:00 TS -16.00 59.80
SI 09:00:00 TS -16.15 59.99
SI 12:00:00 TS -16.30 60.20
SI 15:00:00 TS -16.50 60.40
SI 18:00:00 TS -16.70 60.60
SI 21:00:00 TS -16.85 60.79
SI 1884-01-17 00:00:00 TS -17.00 61.00
SI 03:00:00 TS -17.20 61.24
SI 06:00:00 TS -17.40 61.50
SI 09:00:00 TS -17.57 61.76
SI 12:00:00 TS -17.70 62.00
SI 15:00:00 TS -17.76 62.17
SI 18:00:00 TS -17.80 62.30
SI 21:00:00 TS -17.88 62.42
SI 1884-01-18 00:00:00 TS -18.00 62.60
SI 03:00:00 TS -18.18 62.93
SI 06:00:00 TS -18.40 63.30
SI 09:00:00 TS -18.65 63.62
SI 12:00:00 TS -18.90 63.90
SI 15:00:00 TS -19.11 64.15
SI 18:00:00 TS -19.30 64.40
SI 21:00:00 TS -19.46 64.71
SI 1884-01-19 00:00:00 TS -19.60 65.00
SI 03:00:00 TS -19.76 65.21
SI 06:00:00 TS -19.90 65.40
SI 09:00:00 TS -20.01 65.65
SI 12:00:00 TS -20.10 65.90
SI 15:00:00 TS -20.20 66.11
SI 18:00:00 TS -20.30 66.30
SI 21:00:00 TS -20.40 66.50
SI 1884-01-20 00:00:00 TS -20.50 66.70

Source Information

Agency Information
USA
TOKYO
CMA
HKO
NEWDELHI
REUNION
BOM
NADI
WELLINGTON
DS824 s_hem.dat:33:NOT NAMED
TD9636
TD9635
NEUMANN
MLC

All available IBTrACS Data

SEASON BASIN SUBBASIN ISO_TIME_________ NATURE LAT LON DIST2LAND LANDFALL IFLAG USA SSHS DS824 LAT DS824 LON DS824 STAGE STORM SPEED STORM DIR
Year degrees north degrees east km km 1 degrees north degrees east kts degrees
1884 SI MM 1884-01-11 00:00:00 TS -10.00 63.00 1265 1235 _________O____ -1 -10.00 63.00 TC 7 223
1884 SI MM 03:00:00 TS -10.25 62.76 1235 1191 _________P____ -1 -10.25 62.76 TC 7 225
1884 SI MM 06:00:00 TS -10.50 62.50 1191 1157 _________O____ -1 -10.50 62.50 TC 8 227
1884 SI MM 09:00:00 TS -10.76 62.20 1147 1113 _________P____ -1 -10.76 62.20 TC 8 230
1884 SI MM 12:00:00 TS -11.00 61.90 1113 1084 _________O____ -1 -11.00 61.90 TC 7 231
1884 SI MM 15:00:00 TS -11.21 61.64 1079 1051 _________P____ -1 -11.21 61.64 TC 6 231
1884 SI MM 18:00:00 TS -11.40 61.40 1051 1018 _________O____ -1 -11.40 61.40 TC 6 231
1884 SI MM 21:00:00 TS -11.61 61.14 1018 989 _________P____ -1 -11.61 61.14 TC 6 231
1884 SI MM 1884-01-12 00:00:00 TS -11.80 60.90 989 961 _________O____ -1 -11.80 60.90 TC 5 228
1884 SI MM 03:00:00 TS -11.96 60.73 961 947 _________P____ -1 -11.96 60.73 TC 4 224
1884 SI MM 06:00:00 TS -12.10 60.60 947 933 _________O____ -1 -12.10 60.60 TC 3 223
1884 SI MM 09:00:00 TS -12.20 60.50 933 919 _________P____ -1 -12.20 60.50 TC 3 224
1884 SI MM 12:00:00 TS -12.30 60.40 919 905 _________O____ -1 -12.30 60.40 TC 4 224
1884 SI MM 15:00:00 TS -12.45 60.25 894 877 _________P____ -1 -12.45 60.25 TC 4 224
1884 SI MM 18:00:00 TS -12.60 60.10 877 863 _________O____ -1 -12.60 60.10 TC 4 224
1884 SI MM 21:00:00 TS -12.71 59.99 863 849 _________P____ -1 -12.71 59.99 TC 3 224
1884 SI MM 1884-01-13 00:00:00 TS -12.80 59.90 849 836 _________O____ -1 -12.80 59.90 TC 3 226
1884 SI MM 03:00:00 TS -12.89 59.79 836 822 _________P____ -1 -12.89 59.79 TC 3 224
1884 SI MM 06:00:00 TS -13.00 59.70 822 811 _________O____ -1 -13.00 59.70 TC 3 209
1884 SI MM 09:00:00 TS -13.14 59.65 809 787 _________P____ -1 -13.14 59.65 TC 3 197
1884 SI MM 12:00:00 TS -13.30 59.60 787 773 _________O____ -1 -13.30 59.60 TC 3 205
1884 SI MM 15:00:00 TS -13.44 59.51 773 749 _________P____ -1 -13.44 59.51 TC 4 213
1884 SI MM 18:00:00 TS -13.60 59.40 749 725 _________O____ -1 -13.60 59.40 TC 4 210
1884 SI MM 21:00:00 TS -13.81 59.29 725 700 _________P____ -1 -13.81 59.29 TC 4 206
1884 SI MM 1884-01-14 00:00:00 TS -14.00 59.20 700 687 _________O____ -1 -14.00 59.20 TC 3 207
1884 SI MM 03:00:00 TS -14.11 59.13 687 676 _________P____ -1 -14.11 59.13 TC 2 207
1884 SI MM 06:00:00 TS -14.20 59.10 676 665 _________O____ -1 -14.20 59.10 TC 2 188
1884 SI MM 09:00:00 TS -14.34 59.09 665 644 _________P____ -1 -14.34 59.09 TC 3 0
1884 SI MM 12:00:00 TS -14.50 59.10 644 633 _________O____ -1 -14.50 59.10 TC 3 0
1884 SI MM 15:00:00 TS -14.66 59.09 622 611 _________P____ -1 -14.66 59.09 TC 3 0
1884 SI MM 18:00:00 TS -14.80 59.10 611 600 _________O____ -1 -14.80 59.10 TC 3 167
1884 SI MM 21:00:00 TS -14.91 59.15 603 592 _________P____ -1 -14.91 59.15 TC 2 153
1884 SI MM 1884-01-15 00:00:00 TS -15.00 59.20 592 581 _________O____ -1 -15.00 59.20 TC 2 167
1884 SI MM 03:00:00 TS -15.11 59.20 581 570 _________P____ -1 -15.11 59.20 TC 2 172
1884 SI MM 06:00:00 TS -15.20 59.20 570 570 _________O____ -1 -15.20 59.20 TC 1 164
1884 SI MM 09:00:00 TS -15.25 59.24 570 560 _________P____ -1 -15.25 59.24 TC 1 137
1884 SI MM 12:00:00 TS -15.30 59.30 563 552 _________O____ -1 -15.30 59.30 TC 2 146
1884 SI MM 15:00:00 TS -15.40 59.35 555 545 _________P____ -1 -15.40 59.35 TC 2 153
1884 SI MM 18:00:00 TS -15.50 59.40 545 545 _________O____ -1 -15.50 59.40 TC 2 149
1884 SI MM 21:00:00 TS -15.53 59.44 545 538 _________P____ -1 -15.53 59.44 TC 1 137
1884 SI MM 1884-01-16 00:00:00 TS -15.60 59.50 538 521 _________O____ -1 -15.60 59.50 TC 3 143
1884 SI MM 03:00:00 TS -15.78 59.63 521 509 _________P____ -1 -15.78 59.63 TC 5 144
1884 SI MM 06:00:00 TS -16.00 59.80 509 504 _________O____ -1 -16.00 59.80 TC 5 136
1884 SI MM 09:00:00 TS -16.15 59.99 509 494 _________P____ -1 -16.15 59.99 TC 5 128
1884 SI MM 12:00:00 TS -16.30 60.20 500 493 _________O____ -1 -16.30 60.20 TC 5 132
1884 SI MM 15:00:00 TS -16.50 60.40 493 488 _________P____ -1 -16.50 60.40 TC 6 136
1884 SI MM 18:00:00 TS -16.70 60.60 488 486 _________O____ -1 -16.70 60.60 TC 5 133
1884 SI MM 21:00:00 TS -16.85 60.79 493 483 _________P____ -1 -16.85 60.79 TC 5 128
1884 SI MM 1884-01-17 00:00:00 TS -17.00 61.00 491 490 _________O____ -1 -17.00 61.00 TC 6 129
1884 SI MM 03:00:00 TS -17.20 61.24 491 491 _________P____ -1 -17.20 61.24 TC 6 130
1884 SI MM 06:00:00 TS -17.40 61.50 501 501 _________O____ -1 -17.40 61.50 TC 6 127
1884 SI MM 09:00:00 TS -17.57 61.76 514 514 _________P____ -1 -17.57 61.76 TC 6 122
1884 SI MM 12:00:00 TS -17.70 62.00 526 526 _________O____ -1 -17.70 62.00 TC 4 116
1884 SI MM 15:00:00 TS -17.76 62.17 538 538 _________P____ -1 -17.76 62.17 TC 3 109
1884 SI MM 18:00:00 TS -17.80 62.30 547 547 _________O____ -1 -17.80 62.30 TC 3 116
1884 SI MM 21:00:00 TS -17.88 62.42 552 552 _________P____ -1 -17.88 62.42 TC 3 125
1884 SI MM 1884-01-18 00:00:00 TS -18.00 62.60 566 566 _________O____ -1 -18.00 62.60 TC 6 122
1884 SI MM 03:00:00 TS -18.18 62.93 584 584 _________P____ -1 -18.18 62.93 TC 8 121
1884 SI MM 06:00:00 TS -18.40 63.30 614 614 _________O____ -1 -18.40 63.30 TC 8 126
1884 SI MM 09:00:00 TS -18.65 63.62 637 633 _________P____ -1 -18.65 63.62 TC 8 131
1884 SI MM 12:00:00 TS -18.90 63.90 657 657 _________O____ -1 -18.90 63.90 TC 7 133
1884 SI MM 15:00:00 TS -19.11 64.15 683 680 _________P____ -1 -19.11 64.15 TC 6 130
1884 SI MM 18:00:00 TS -19.30 64.40 699 699 _________O____ -1 -19.30 64.40 TC 6 123
1884 SI MM 21:00:00 TS -19.46 64.71 726 726 _________P____ -1 -19.46 64.71 TC 6 118
1884 SI MM 1884-01-19 00:00:00 TS -19.60 65.00 756 756 _________O____ -1 -19.60 65.00 TC 6 122
1884 SI MM 03:00:00 TS -19.76 65.21 774 774 _________P____ -1 -19.76 65.21 TC 5 129
1884 SI MM 06:00:00 TS -19.90 65.40 794 794 _________O____ -1 -19.90 65.40 TC 5 121
1884 SI MM 09:00:00 TS -20.01 65.65 825 825 _________P____ -1 -20.01 65.65 TC 5 113
1884 SI MM 12:00:00 TS -20.10 65.90 845 845 _________O____ -1 -20.10 65.90 TC 5 114
1884 SI MM 15:00:00 TS -20.20 66.11 865 865 _________P____ -1 -20.20 66.11 TC 4 118
1884 SI MM 18:00:00 TS -20.30 66.30 886 886 _________O____ -1 -20.30 66.30 TC 4 119
1884 SI MM 21:00:00 TS -20.40 66.50 906 906 _________P____ -1 -20.40 66.50 TC 4 118
1884 SI MM 1884-01-20 00:00:00 TS -20.50 66.70 927 _________O____ -1 -20.50 66.70 TC 4 118